createdAt,value
2023-03-21T00:01:52.960Z,98688.16
2023-03-21T00:04:24.638Z,98684.05
2023-03-21T00:06:53.188Z,98680.43
2023-03-21T00:09:21.465Z,98680.50
2023-03-21T00:11:53.066Z,98683.88
2023-03-21T00:14:21.265Z,98682.27
2023-03-21T00:16:51.049Z,98682.92
2023-03-21T00:19:21.073Z,98679.30
2023-03-21T00:22:08.838Z,98674.68
2023-03-21T00:24:37.558Z,98675.40
2023-03-21T00:27:30.324Z,98672.56
2023-03-21T00:29:56.795Z,98671.63
2023-03-21T00:32:28.279Z,98671.16
2023-03-21T00:35:16.531Z,98671.58
2023-03-21T00:37:49.014Z,98668.83
2023-03-21T00:40:26.750Z,98665.59
2023-03-21T00:42:59.192Z,98666.83
2023-03-21T00:45:28.172Z,98660.53
2023-03-21T00:47:56.593Z,98662.54
2023-03-21T00:50:30.162Z,98659.50
2023-03-21T00:52:58.653Z,98663.19
2023-03-21T00:55:28.535Z,98658.29
2023-03-21T00:58:02.064Z,98662.05
2023-03-21T01:00:31.204Z,98658.41
2023-03-21T01:03:17.539Z,98654.05
2023-03-21T01:06:04.546Z,98652.42
2023-03-21T01:08:48.609Z,98656.36
2023-03-21T01:11:24.435Z,98653.08
2023-03-21T01:13:59.601Z,98650.44
2023-03-21T01:16:32.844Z,98644.16
2023-03-21T01:19:02.106Z,98645.75
2023-03-21T01:21:33.250Z,98640.67
2023-03-21T01:24:01.918Z,98636.39
2023-03-21T01:26:30.639Z,98631.61
2023-03-21T01:28:58.728Z,98627.13
2023-03-21T01:31:26.882Z,98626.44
2023-03-21T01:33:55.113Z,98624.55
2023-03-21T01:36:25.580Z,98620.20
2023-03-21T01:38:58.504Z,98621.98
2023-03-21T01:41:42.011Z,98621.04
2023-03-21T01:44:18.811Z,98618.70
2023-03-21T01:47:11.412Z,98616.06
2023-03-21T01:50:02.640Z,98610.40
2023-03-21T01:52:41.905Z,98615.06
2023-03-21T01:55:18.687Z,98609.81
2023-03-21T01:58:05.999Z,98606.08
2023-03-21T02:00:56.858Z,98608.72
2023-03-21T02:03:50.440Z,98603.29
2023-03-21T02:06:49.162Z,98599.60
2023-03-21T02:09:26.200Z,98596.52
2023-03-21T02:11:58.220Z,98593.85
2023-03-21T02:14:30.974Z,98592.20
2023-03-21T02:17:27.925Z,98593.27
2023-03-21T02:20:41.067Z,98598.88
2023-03-21T02:23:14.730Z,98596.55
2023-03-21T02:26:40.897Z,98594.02
2023-03-21T02:29:49.415Z,98591.48
2023-03-21T02:32:37.538Z,98588.33
2023-03-21T02:35:37.115Z,98590.70
2023-03-21T02:39:09.581Z,98587.35
2023-03-21T02:41:49.194Z,98590.08
2023-03-21T02:44:37.702Z,98588.98
2023-03-21T02:47:13.584Z,98587.00
2023-03-21T02:49:54.550Z,98585.66
2023-03-21T02:52:37.733Z,98585.02
2023-03-21T02:55:16.372Z,98581.47
2023-03-21T02:57:51.002Z,98581.11
2023-03-21T03:00:21.707Z,98585.04
2023-03-21T03:02:54.563Z,98585.30
2023-03-21T03:05:29.361Z,98584.53
2023-03-21T03:08:24.000Z,98588.39
2023-03-21T03:11:09.589Z,98585.64
2023-03-21T03:13:52.782Z,98581.54
2023-03-21T03:16:42.446Z,98586.77
2023-03-21T03:19:18.321Z,98588.71
2023-03-21T03:22:06.514Z,98588.02
2023-03-21T03:24:55.350Z,98589.85
2023-03-21T03:27:26.220Z,98588.06
2023-03-21T03:29:54.573Z,98586.30
2023-03-21T03:32:44.958Z,98582.86
2023-03-21T03:35:17.656Z,98586.13
2023-03-21T03:37:48.176Z,98583.80
2023-03-21T03:40:17.474Z,98581.42
2023-03-21T03:42:53.440Z,98578.64
2023-03-21T03:45:40.036Z,98579.55
2023-03-21T03:48:15.841Z,98578.86
2023-03-21T03:51:11.006Z,98574.90
2023-03-21T03:53:58.916Z,98569.30
2023-03-21T03:56:30.000Z,98567.63
2023-03-21T03:58:58.376Z,98565.38
2023-03-21T04:01:41.549Z,98564.01
2023-03-21T04:04:13.177Z,98562.48
2023-03-21T04:06:45.622Z,98560.60
2023-03-21T04:09:21.923Z,98562.19
2023-03-21T04:11:53.338Z,98562.58
2023-03-21T04:14:21.702Z,98565.37
2023-03-21T04:16:50.584Z,98567.94
2023-03-21T04:19:19.012Z,98563.92
2023-03-21T04:21:47.683Z,98564.56
2023-03-21T04:24:17.322Z,98565.44
2023-03-21T04:26:46.138Z,98570.98
2023-03-21T04:29:37.177Z,98571.03
2023-03-21T04:32:27.651Z,98571.03
2023-03-21T04:35:09.799Z,98573.76
2023-03-21T04:37:39.320Z,98572.87
2023-03-21T04:40:11.218Z,98572.17
2023-03-21T04:42:39.485Z,98575.75
2023-03-21T04:45:08.374Z,98580.64
2023-03-21T04:47:36.900Z,98580.96
2023-03-21T04:50:09.430Z,98584.34
2023-03-21T04:52:38.491Z,98583.89
2023-03-21T04:55:10.180Z,98583.71
2023-03-21T04:57:39.851Z,98585.36
2023-03-21T05:00:10.028Z,98585.45
2023-03-21T05:02:42.440Z,98583.60
2023-03-21T05:05:12.083Z,98581.16
2023-03-21T05:07:41.819Z,98579.81
2023-03-21T05:10:11.894Z,98581.95
2023-03-21T05:12:42.690Z,98584.96
2023-03-21T05:15:11.207Z,98581.83
2023-03-21T05:17:44.394Z,98582.52
2023-03-21T05:20:16.149Z,98585.64
2023-03-21T05:22:46.291Z,98589.64
2023-03-21T05:25:18.220Z,98589.98
2023-03-21T05:28:31.484Z,98592.72
2023-03-21T05:31:01.120Z,98594.89
2023-03-21T05:33:30.038Z,98599.05
2023-03-21T05:35:58.574Z,98597.82
2023-03-21T05:38:31.541Z,98600.23
2023-03-21T05:40:59.880Z,98600.23
2023-03-21T05:43:28.225Z,98596.61
2023-03-21T05:45:58.294Z,98596.09
2023-03-21T05:48:36.893Z,98596.40
2023-03-21T05:51:15.932Z,98595.45
2023-03-21T05:53:44.027Z,98596.27
2023-03-21T05:56:12.319Z,98595.11
2023-03-21T05:58:46.788Z,98594.35
2023-03-21T06:01:15.909Z,98591.98
2023-03-21T06:03:48.364Z,98590.23
2023-03-21T06:06:18.538Z,98593.16
2023-03-21T06:08:53.379Z,98593.55
2023-03-21T06:11:27.483Z,98592.84
2023-03-21T06:14:16.340Z,98590.66
2023-03-21T06:16:45.451Z,98591.64
2023-03-21T06:19:14.804Z,98590.83
2023-03-21T06:22:01.369Z,98591.38
2023-03-21T06:24:29.631Z,98597.02
2023-03-21T06:26:58.605Z,98600.05
2023-03-21T06:29:28.523Z,98598.23
2023-03-21T06:31:56.653Z,98596.86
2023-03-21T06:34:24.568Z,98598.96
2023-03-21T06:36:54.684Z,98594.23
2023-03-21T06:39:23.285Z,98594.92
2023-03-21T06:41:51.758Z,98600.27
2023-03-21T06:44:22.127Z,98597.89
2023-03-21T06:46:57.478Z,98598.84
2023-03-21T06:49:27.040Z,98598.52
2023-03-21T06:51:58.492Z,98598.49
2023-03-21T06:54:26.879Z,98598.43
2023-03-21T06:57:11.533Z,98597.67
2023-03-21T06:59:42.012Z,98597.37
2023-03-21T07:02:12.634Z,98591.10
2023-03-21T07:04:46.108Z,98590.60
2023-03-21T07:07:18.464Z,98583.85
2023-03-21T07:09:47.696Z,98584.90
2023-03-21T07:12:16.526Z,98580.17
2023-03-21T07:15:20.043Z,98582.26
2023-03-21T07:17:48.336Z,98579.55
2023-03-21T07:20:17.073Z,98578.48
2023-03-21T07:22:45.075Z,98578.77
2023-03-21T07:25:20.585Z,98581.06
2023-03-21T07:27:51.226Z,98576.80
2023-03-21T07:30:19.376Z,98580.11
2023-03-21T07:32:47.743Z,98579.63
2023-03-21T07:35:17.365Z,98580.50
2023-03-21T07:37:47.158Z,98579.30
2023-03-21T07:40:18.010Z,98583.44
2023-03-21T07:42:45.979Z,98581.70
2023-03-21T07:45:21.983Z,98580.42
2023-03-21T07:47:50.384Z,98585.48
2023-03-21T07:50:19.456Z,98580.20
2023-03-21T07:55:56.895Z,98576.97
2023-03-21T07:58:26.802Z,98579.73
2023-03-21T08:00:55.265Z,98577.06
2023-03-21T08:03:23.522Z,98578.53
2023-03-21T08:05:55.125Z,98574.64
2023-03-21T08:08:23.938Z,98569.47
2023-03-21T08:10:50.500Z,98569.73
2023-03-21T08:13:22.385Z,98571.03
2023-03-21T08:15:49.263Z,98572.20
2023-03-21T08:18:16.317Z,98572.33
2023-03-21T08:20:43.074Z,98573.48
2023-03-21T08:23:09.731Z,98575.73
2023-03-21T08:25:36.922Z,98575.77
2023-03-21T08:28:04.681Z,98578.36
2023-03-21T08:30:32.574Z,98579.25
2023-03-21T08:33:01.182Z,98576.95
2023-03-21T08:35:29.623Z,98578.73
2023-03-21T08:37:56.992Z,98576.10
2023-03-21T08:40:23.612Z,98574.80
2023-03-21T08:42:52.280Z,98574.92
2023-03-21T08:45:19.102Z,98575.64
2023-03-21T08:47:47.653Z,98578.95
2023-03-21T08:50:17.422Z,98573.41
2023-03-21T08:52:44.221Z,98573.33
2023-03-21T08:55:10.984Z,98573.40
2023-03-21T08:57:38.097Z,98571.48
2023-03-21T09:00:12.480Z,98574.20
2023-03-21T09:02:40.972Z,98575.88
2023-03-21T09:05:08.197Z,98577.84
2023-03-21T09:07:35.852Z,98581.50
2023-03-21T09:10:21.778Z,98580.83
2023-03-21T09:12:55.203Z,98575.16
2023-03-21T09:15:25.050Z,98573.92
2023-03-21T09:17:53.482Z,98578.60
2023-03-21T09:20:25.477Z,98577.43
2023-03-21T09:22:52.676Z,98572.55
2023-03-21T09:25:20.557Z,98570.08
2023-03-21T09:27:49.322Z,98567.70
2023-03-21T09:30:17.841Z,98569.42
2023-03-21T09:32:47.836Z,98566.29
2023-03-21T09:35:18.486Z,98565.61
2023-03-21T09:37:49.193Z,98558.46
2023-03-21T09:40:25.493Z,98560.05
2023-03-21T09:43:06.920Z,98564.81
2023-03-21T09:45:44.301Z,98561.16
2023-03-21T09:48:19.254Z,98561.98
2023-03-21T09:50:48.766Z,98565.56
2023-03-21T09:53:23.961Z,98565.61
2023-03-21T09:55:53.454Z,98562.53
2023-03-21T09:58:25.759Z,98560.96
2023-03-21T10:01:00.685Z,98558.91
2023-03-21T10:03:34.460Z,98556.25
2023-03-21T10:06:04.739Z,98558.96
2023-03-21T10:08:35.860Z,98557.20
2023-03-21T10:11:22.588Z,98554.37
2023-03-21T10:13:55.790Z,98550.77
2023-03-21T10:16:31.333Z,98551.63
2023-03-21T10:19:04.775Z,98550.56
2023-03-21T10:21:58.578Z,98549.33
2023-03-21T10:24:21.906Z,98549.08
2023-03-21T10:26:51.028Z,98551.05
2023-03-21T10:29:18.009Z,98550.69
2023-03-21T10:31:45.046Z,98545.84
2023-03-21T10:34:16.200Z,98546.47
2023-03-21T10:36:43.978Z,98542.17
2023-03-21T10:39:21.173Z,98540.45
2023-03-21T10:41:47.759Z,98550.67
2023-03-21T10:44:16.731Z,98550.53
2023-03-21T10:46:53.457Z,98548.26
2023-03-21T10:49:20.988Z,98549.77
2023-03-21T10:51:52.140Z,98543.73
2023-03-21T10:54:20.860Z,98537.62
2023-03-21T10:56:57.560Z,98540.08
2023-03-21T10:59:24.747Z,98541.23
2023-03-21T11:01:52.284Z,98535.41
2023-03-21T11:04:21.865Z,98534.45
2023-03-21T11:06:59.365Z,98535.58
2023-03-21T11:09:41.932Z,98534.73
2023-03-21T11:12:27.313Z,98531.86
2023-03-21T11:14:54.634Z,98525.84
2023-03-21T11:17:28.474Z,98530.11
2023-03-21T11:20:08.464Z,98528.59
2023-03-21T11:22:40.333Z,98531.62
2023-03-21T11:25:11.467Z,98526.84
2023-03-21T11:27:47.373Z,98525.27
2023-03-21T11:30:21.051Z,98527.98
2023-03-21T11:32:51.590Z,98529.33
2023-03-21T11:35:20.746Z,98524.29
2023-03-21T11:37:52.685Z,98522.64
2023-03-21T11:40:25.630Z,98517.35
2023-03-21T11:42:54.461Z,98521.92
2023-03-21T11:45:25.219Z,98521.66
2023-03-21T11:47:57.101Z,98520.52
2023-03-21T11:50:23.780Z,98520.23
2023-03-21T11:53:06.799Z,98519.48
2023-03-21T11:56:06.396Z,98520.27
2023-03-21T11:58:38.990Z,98516.73
2023-03-21T12:01:43.173Z,98509.08
2023-03-21T12:04:17.833Z,98505.95
2023-03-21T12:06:47.221Z,98507.38
2023-03-21T12:09:32.808Z,98505.81
2023-03-21T12:12:06.944Z,98498.45
2023-03-21T12:14:56.194Z,98500.60
2023-03-21T12:17:35.454Z,98500.33
2023-03-21T12:20:11.485Z,98493.21
2023-03-21T12:22:59.089Z,98496.06
2023-03-21T12:25:30.816Z,98493.05
2023-03-21T12:28:32.008Z,98490.35
2023-03-21T12:31:25.001Z,98489.12
2023-03-21T12:34:14.226Z,98488.45
2023-03-21T12:37:02.919Z,98491.95
2023-03-21T12:39:36.802Z,98491.88
2023-03-21T12:42:03.525Z,98490.58
2023-03-21T12:44:32.222Z,98493.89
2023-03-21T12:47:22.632Z,98489.48
2023-03-21T12:49:55.190Z,98484.67
2023-03-21T12:52:25.380Z,98487.92
2023-03-21T12:55:00.046Z,98492.22
2023-03-21T12:57:47.703Z,98490.73
2023-03-21T13:00:25.147Z,98491.05
2023-03-21T13:03:12.312Z,98491.55
2023-03-21T13:06:00.469Z,98492.83
2023-03-21T13:08:39.021Z,98495.30
2023-03-21T13:11:06.195Z,98491.21
2023-03-21T13:13:46.761Z,98487.30
2023-03-21T13:16:39.021Z,98487.27
2023-03-21T13:19:20.330Z,98484.03
2023-03-21T13:22:05.893Z,98483.66
2023-03-21T13:24:48.326Z,98483.86
2023-03-21T13:27:24.100Z,98483.33
2023-03-21T13:29:52.480Z,98484.25
2023-03-21T13:32:30.162Z,98482.61
2023-03-21T13:35:16.340Z,98481.45
2023-03-21T13:37:52.663Z,98475.51
2023-03-21T13:40:39.501Z,98470.00
2023-03-21T13:43:48.748Z,98466.41
2023-03-21T13:46:24.780Z,98468.89
2023-03-21T13:48:58.504Z,98469.46
2023-03-21T13:51:29.139Z,98469.30
2023-03-21T13:54:38.215Z,98471.59
2023-03-21T13:57:05.546Z,98471.34
2023-03-21T13:59:32.157Z,98475.52
2023-03-21T14:02:28.381Z,98475.50
2023-03-21T14:05:07.225Z,98474.71
2023-03-21T14:07:42.423Z,98473.48
2023-03-21T14:10:23.736Z,98476.88
2023-03-21T14:12:51.410Z,98479.73
2023-03-21T14:15:19.584Z,98477.89
2023-03-21T14:17:58.202Z,98474.15
2023-03-21T14:20:32.272Z,98481.11
2023-03-21T14:23:00.252Z,98479.83
2023-03-21T14:25:37.131Z,98481.23
2023-03-21T14:28:25.273Z,98479.23
2023-03-21T14:30:59.881Z,98480.34
2023-03-21T14:33:43.257Z,98481.81
2023-03-21T14:36:17.065Z,98477.60
2023-03-21T14:38:43.752Z,98480.52
2023-03-21T14:41:26.667Z,98480.99
2023-03-21T14:44:25.188Z,98478.98
2023-03-21T14:47:05.564Z,98480.88
2023-03-21T14:49:33.654Z,98480.39
2023-03-21T14:52:02.065Z,98478.83
2023-03-21T14:54:29.409Z,98481.56
2023-03-21T14:57:02.863Z,98483.05
2023-03-21T14:59:34.124Z,98478.26
2023-03-21T15:02:04.456Z,98483.16
2023-03-21T15:04:31.302Z,98482.61
2023-03-21T15:07:04.343Z,98484.29
2023-03-21T15:09:33.939Z,98494.81
2023-03-21T15:12:08.483Z,98495.16
2023-03-21T15:14:36.140Z,98500.88
2023-03-21T15:17:07.072Z,98505.31
2023-03-21T15:19:39.562Z,98509.05
2023-03-21T15:22:18.216Z,98512.91
2023-03-21T15:24:48.208Z,98520.09
2023-03-21T15:27:17.010Z,98512.66
2023-03-21T15:29:44.258Z,98517.99
2023-03-21T15:32:16.784Z,98518.11
2023-03-21T15:34:44.768Z,98531.10
2023-03-21T15:37:33.423Z,98537.56
2023-03-21T15:40:23.410Z,98537.67
2023-03-21T15:42:50.797Z,98546.66
2023-03-21T15:45:26.503Z,98549.86
2023-03-21T15:48:07.316Z,98549.15
2023-03-21T15:50:56.468Z,98547.67
2023-03-21T15:53:23.573Z,98550.85
2023-03-21T15:56:03.854Z,98561.49
2023-03-21T15:58:42.297Z,98562.11
2023-03-21T16:01:19.370Z,98564.20
2023-03-21T16:04:02.431Z,98564.58
2023-03-21T16:06:33.017Z,98565.77
2023-03-21T16:09:09.730Z,98565.13
2023-03-21T16:11:49.087Z,98565.65
2023-03-21T16:14:17.054Z,98565.05
2023-03-21T16:16:44.251Z,98567.58
2023-03-21T16:19:12.360Z,98572.78
2023-03-21T16:21:41.360Z,98571.58
2023-03-21T16:24:11.093Z,98571.36
2023-03-21T16:26:45.586Z,98570.63
2023-03-21T16:29:13.426Z,98574.89
2023-03-21T16:31:40.267Z,98574.28
2023-03-21T16:34:07.443Z,98573.23
2023-03-21T16:36:39.678Z,98572.74
2023-03-21T16:39:16.330Z,98572.55
2023-03-21T16:41:42.989Z,98573.24
2023-03-21T16:44:09.712Z,98575.04
2023-03-21T16:46:36.486Z,98577.86
2023-03-21T16:49:03.508Z,98579.45
2023-03-21T16:51:34.845Z,98585.68
2023-03-21T16:54:01.914Z,98584.45
2023-03-21T16:56:39.960Z,98589.86
2023-03-21T16:59:07.750Z,98594.19
2023-03-21T17:01:37.684Z,98595.80
2023-03-21T17:04:04.400Z,98600.64
2023-03-21T17:06:32.683Z,98600.45
2023-03-21T17:08:59.939Z,98600.26
2023-03-21T17:11:30.893Z,98601.20
2023-03-21T17:13:57.530Z,98603.89
2023-03-21T17:16:26.672Z,98607.13
2023-03-21T17:18:54.504Z,98610.37
2023-03-21T17:21:22.781Z,98613.72
2023-03-21T17:23:49.679Z,98613.67
2023-03-21T17:26:22.182Z,98614.35
2023-03-21T17:28:48.955Z,98615.49
2023-03-21T17:31:17.384Z,98614.13
2023-03-21T17:33:44.257Z,98616.44
2023-03-21T17:36:13.183Z,98615.73
2023-03-21T17:38:40.022Z,98614.52
2023-03-21T17:41:10.967Z,98618.21
2023-03-21T17:43:37.559Z,98617.65
2023-03-21T17:46:04.709Z,98618.14
2023-03-21T17:48:31.571Z,98620.06
2023-03-21T17:50:58.111Z,98620.42
2023-03-21T17:53:26.051Z,98618.13
2023-03-21T17:55:55.167Z,98616.78
2023-03-21T17:58:22.706Z,98620.98
2023-03-21T18:00:49.203Z,98622.70
2023-03-21T18:03:17.826Z,98621.80
2023-03-21T18:05:45.711Z,98623.98
2023-03-21T18:08:13.545Z,98626.53
2023-03-21T18:10:40.942Z,98630.59
2023-03-21T18:13:07.861Z,98630.97
2023-03-21T18:15:44.093Z,98629.02
2023-03-21T18:18:13.435Z,98635.43
2023-03-21T18:20:51.816Z,98633.91
2023-03-21T18:23:19.191Z,98636.00
2023-03-21T18:25:45.830Z,98640.35
2023-03-21T18:28:21.100Z,98642.30
2023-03-21T18:31:11.451Z,98641.90
2023-03-21T18:33:37.355Z,98644.98
2023-03-21T18:36:07.627Z,98644.52
2023-03-21T18:38:36.471Z,98644.87
2023-03-21T18:41:07.174Z,98641.88
2023-03-21T18:46:23.074Z,98649.48
2023-03-21T18:48:51.628Z,98650.31
2023-03-21T18:51:18.966Z,98653.05
2023-03-21T18:53:45.896Z,98652.34
2023-03-21T18:56:46.868Z,98652.45
2023-03-21T18:59:04.472Z,98658.16
2023-03-21T19:01:32.055Z,98657.23
2023-03-21T19:04:20.698Z,98658.64
2023-03-21T19:06:46.237Z,98657.32
2023-03-21T19:09:14.345Z,98660.49
2023-03-21T19:11:42.016Z,98662.90
2023-03-21T19:14:12.828Z,98665.98
2023-03-21T19:17:14.838Z,98665.14
2023-03-21T19:19:27.799Z,98665.23
2023-03-21T19:21:55.001Z,98671.06
2023-03-21T19:24:27.534Z,98672.33
2023-03-21T19:26:59.163Z,98672.27
2023-03-21T19:29:26.162Z,98670.96
2023-03-21T19:31:52.757Z,98674.24
2023-03-21T19:34:20.626Z,98676.67
2023-03-21T19:36:51.654Z,98677.45
2023-03-21T19:39:21.610Z,98676.72
2023-03-21T19:41:48.560Z,98676.14
2023-03-21T19:44:15.553Z,98677.11
2023-03-21T19:46:42.459Z,98676.23
2023-03-21T19:49:10.405Z,98674.14
2023-03-21T19:51:37.691Z,98674.46
2023-03-21T19:54:04.903Z,98673.58
2023-03-21T19:56:31.997Z,98675.80
2023-03-21T19:58:59.246Z,98675.88
2023-03-21T20:01:27.240Z,98680.29
2023-03-21T20:03:55.726Z,98682.08
2023-03-21T20:06:23.378Z,98681.86
2023-03-21T20:09:30.830Z,98678.84
2023-03-21T20:23:25.695Z,98681.55
2023-03-21T20:25:53.730Z,98681.52
2023-03-21T20:28:27.066Z,98680.48
2023-03-21T20:31:02.068Z,98678.27
2023-03-21T20:33:30.723Z,98677.51
2023-03-21T20:38:52.222Z,98676.46
2023-03-21T20:41:20.901Z,98675.97
2023-03-21T20:46:38.086Z,98683.02
2023-03-21T20:49:09.905Z,98686.43
2023-03-21T20:52:40.846Z,98686.60
2023-03-21T20:54:26.776Z,98689.55
2023-03-21T20:56:56.822Z,98690.52
2023-03-21T20:59:27.660Z,98691.49
2023-03-21T21:01:59.058Z,98693.80
2023-03-21T21:04:52.854Z,98696.83
2023-03-21T21:07:21.229Z,98700.75
2023-03-21T21:09:54.643Z,98697.80
2023-03-21T21:12:27.533Z,98695.70
2023-03-21T21:14:56.706Z,98696.13
2023-03-21T21:17:54.542Z,98695.48
2023-03-21T21:20:20.883Z,98701.18
2023-03-21T21:22:59.597Z,98703.52
2023-03-21T21:25:32.063Z,98705.70
2023-03-21T21:28:01.838Z,98707.33
2023-03-21T21:30:38.372Z,98703.90
2023-03-21T21:33:07.091Z,98706.20
2023-03-21T21:35:35.980Z,98709.06
2023-03-21T21:38:04.548Z,98712.35
2023-03-21T21:40:33.014Z,98713.17
2023-03-21T21:43:03.748Z,98715.48
2023-03-21T21:45:32.488Z,98720.58
2023-03-21T21:48:00.823Z,98721.52
2023-03-21T21:50:30.656Z,98718.30
2023-03-21T21:53:03.914Z,98715.35
2023-03-21T21:55:34.287Z,98715.09
2023-03-21T21:58:03.975Z,98719.82
2023-03-21T22:00:32.288Z,98719.23
2023-03-21T22:03:00.720Z,98721.18
2023-03-21T22:05:29.345Z,98720.02
2023-03-21T22:08:03.534Z,98723.33
2023-03-21T22:10:33.000Z,98721.11
2023-03-21T22:13:00.907Z,98721.64
2023-03-21T22:15:29.188Z,98721.52
2023-03-21T22:17:58.978Z,98724.02
2023-03-21T22:20:26.892Z,98721.77
2023-03-21T22:23:01.058Z,98723.92
2023-03-21T22:25:33.123Z,98727.79
2023-03-21T22:28:01.135Z,98726.30
2023-03-21T22:30:29.410Z,98729.61
2023-03-21T22:33:08.922Z,98727.94
2023-03-21T22:35:42.544Z,98726.48
2023-03-21T22:38:12.919Z,98728.45
2023-03-21T22:40:41.326Z,98727.80
2023-03-21T22:43:13.590Z,98728.14
2023-03-21T22:45:41.702Z,98731.19
2023-03-21T22:48:13.573Z,98736.65
2023-03-21T22:50:42.313Z,98738.02
2023-03-21T22:53:10.529Z,98740.98
2023-03-21T22:55:38.934Z,98740.48
2023-03-21T22:58:07.515Z,98740.10
2023-03-21T23:00:35.502Z,98744.83
2023-03-21T23:03:04.771Z,98741.77
2023-03-21T23:05:33.851Z,98741.20
2023-03-21T23:08:07.994Z,98741.62
2023-03-21T23:10:40.921Z,98738.92
2023-03-21T23:13:09.332Z,98740.81
2023-03-21T23:15:40.832Z,98734.73
2023-03-21T23:18:09.872Z,98735.14
2023-03-21T23:20:38.300Z,98734.73
2023-03-21T23:23:06.467Z,98731.40
2023-03-21T23:25:39.542Z,98732.62
2023-03-21T23:28:08.931Z,98730.56
2023-03-21T23:30:38.282Z,98730.23
2023-03-21T23:33:06.623Z,98728.60
2023-03-21T23:35:39.510Z,98728.41
2023-03-21T23:38:08.057Z,98725.54
2023-03-21T23:40:38.987Z,98723.30
2023-03-21T23:43:07.250Z,98726.81
2023-03-21T23:45:35.408Z,98728.14
2023-03-21T23:48:05.142Z,98727.60
2023-03-21T23:50:34.130Z,98725.52
2023-03-21T23:53:05.621Z,98727.28
2023-03-21T23:55:37.964Z,98726.84
2023-03-21T23:58:09.294Z,98727.06
